< < Back
Terminal Aerodrome Forecast


Current Version              Previous Versions:   1  2  3  4  5  6  7  8  9  

Terminal Aerodrome Forecast

377
FTUS42 KFFC 041000 AAB
TAFATL
TAF AMD
KATL 041000Z 0410/0512 31008KT P6SM FEW050
     FM041400 31012G20KT P6SM SCT045
     FM042200 30014G22KT P6SM BKN070
     FM050000 30012KT P6SM SCT060 SCT250
     FM050900 30015G23KT P6SM SCT060=

Latest METAR

339
SAUS70 KWBC 041000 RRL
MTRATL
METAR KATL 040952Z 32007KT 10SM CLR 13/09 A2982 RMK AO2 SLP093
T01280094


USA.gov is the U.S. government's official web portal to all federal, state and local government web resources and services.